sensor_id;sensor_type;location;lat;lon;timestamp;P1;durP1;ratioP1;P2;durP2;ratioP2
3081;SDS011;1551;51.046;7.010;2023-03-01T00:00:22;11.20;;;8.40;;
3081;SDS011;1551;51.046;7.010;2023-03-01T00:03:11;10.00;;;8.03;;
3081;SDS011;1551;51.046;7.010;2023-03-01T00:06:01;9.50;;;7.67;;
3081;SDS011;1551;51.046;7.010;2023-03-01T00:08:51;10.80;;;8.05;;
3081;SDS011;1551;51.046;7.010;2023-03-01T00:11:40;9.98;;;8.30;;
3081;SDS011;1551;51.046;7.010;2023-03-01T00:14:30;11.75;;;7.80;;
3081;SDS011;1551;51.046;7.010;2023-03-01T00:17:19;10.30;;;8.00;;
3081;SDS011;1551;51.046;7.010;2023-03-01T00:20:08;12.63;;;8.05;;
3081;SDS011;1551;51.046;7.010;2023-03-01T00:22:58;9.38;;;8.38;;
3081;SDS011;1551;51.046;7.010;2023-03-01T00:25:47;10.43;;;7.85;;
3081;SDS011;1551;51.046;7.010;2023-03-01T00:28:36;11.25;;;7.50;;
3081;SDS011;1551;51.046;7.010;2023-03-01T00:31:26;10.52;;;7.50;;
3081;SDS011;1551;51.046;7.010;2023-03-01T00:34:18;11.67;;;7.73;;
3081;SDS011;1551;51.046;7.010;2023-03-01T00:37:07;10.40;;;7.60;;
3081;SDS011;1551;51.046;7.010;2023-03-01T00:39:56;9.32;;;7.40;;
3081;SDS011;1551;51.046;7.010;2023-03-01T00:42:45;10.10;;;7.20;;
3081;SDS011;1551;51.046;7.010;2023-03-01T00:45:34;11.27;;;8.27;;
3081;SDS011;1551;51.046;7.010;2023-03-01T00:48:23;10.32;;;7.40;;
3081;SDS011;1551;51.046;7.010;2023-03-01T00:51:13;8.88;;;7.65;;
3081;SDS011;1551;51.046;7.010;2023-03-01T00:54:07;11.00;;;7.82;;
3081;SDS011;1551;51.046;7.010;2023-03-01T00:56:57;9.57;;;8.17;;
3081;SDS011;1551;51.046;7.010;2023-03-01T00:59:46;8.75;;;7.20;;
3081;SDS011;1551;51.046;7.010;2023-03-01T01:02:36;8.67;;;7.10;;
3081;SDS011;1551;51.046;7.010;2023-03-01T01:05:25;9.60;;;7.10;;
3081;SDS011;1551;51.046;7.010;2023-03-01T01:08:15;10.40;;;7.43;;
3081;SDS011;1551;51.046;7.010;2023-03-01T01:11:04;9.07;;;7.05;;
3081;SDS011;1551;51.046;7.010;2023-03-01T01:13:53;8.60;;;6.83;;
3081;SDS011;1551;51.046;7.010;2023-03-01T01:16:43;9.73;;;7.03;;
3081;SDS011;1551;51.046;7.010;2023-03-01T01:19:32;8.02;;;7.07;;
3081;SDS011;1551;51.046;7.010;2023-03-01T01:22:21;8.15;;;7.20;;
3081;SDS011;1551;51.046;7.010;2023-03-01T01:25:10;9.23;;;6.88;;
3081;SDS011;1551;51.046;7.010;2023-03-01T01:27:59;10.40;;;7.72;;
3081;SDS011;1551;51.046;7.010;2023-03-01T01:30:48;10.80;;;7.37;;
3081;SDS011;1551;51.046;7.010;2023-03-01T01:33:37;9.13;;;7.70;;
3081;SDS011;1551;51.046;7.010;2023-03-01T01:36:27;8.57;;;6.50;;
3081;SDS011;1551;51.046;7.010;2023-03-01T01:39:16;11.27;;;6.70;;
3081;SDS011;1551;51.046;7.010;2023-03-01T01:42:05;10.15;;;6.40;;
3081;SDS011;1551;51.046;7.010;2023-03-01T01:48:18;8.95;;;6.95;;
3081;SDS011;1551;51.046;7.010;2023-03-01T01:51:15;9.67;;;6.80;;
3081;SDS011;1551;51.046;7.010;2023-03-01T01:54:10;11.38;;;6.82;;
3081;SDS011;1551;51.046;7.010;2023-03-01T01:57:03;8.50;;;6.20;;
3081;SDS011;1551;51.046;7.010;2023-03-01T01:59:58;8.83;;;6.60;;
3081;SDS011;1551;51.046;7.010;2023-03-01T02:02:54;8.85;;;6.53;;
3081;SDS011;1551;51.046;7.010;2023-03-01T02:06:00;8.02;;;6.95;;
3081;SDS011;1551;51.046;7.010;2023-03-01T02:08:52;8.77;;;7.00;;
3081;SDS011;1551;51.046;7.010;2023-03-01T02:11:41;10.15;;;7.10;;
3081;SDS011;1551;51.046;7.010;2023-03-01T02:14:32;10.55;;;7.47;;
3081;SDS011;1551;51.046;7.010;2023-03-01T02:17:21;9.07;;;6.88;;
3081;SDS011;1551;51.046;7.010;2023-03-01T02:20:29;8.40;;;6.20;;
3081;SDS011;1551;51.046;7.010;2023-03-01T02:23:23;11.23;;;6.60;;
3081;SDS011;1551;51.046;7.010;2023-03-01T02:26:18;7.90;;;6.40;;
3081;SDS011;1551;51.046;7.010;2023-03-01T02:29:11;10.60;;;7.43;;
3081;SDS011;1551;51.046;7.010;2023-03-01T02:32:02;9.20;;;7.57;;
3081;SDS011;1551;51.046;7.010;2023-03-01T02:34:52;9.17;;;7.80;;
3081;SDS011;1551;51.046;7.010;2023-03-01T02:37:44;11.80;;;8.27;;
3081;SDS011;1551;51.046;7.010;2023-03-01T02:40:34;8.88;;;7.20;;
3081;SDS011;1551;51.046;7.010;2023-03-01T02:43:27;9.40;;;7.70;;
3081;SDS011;1551;51.046;7.010;2023-03-01T02:46:20;9.50;;;6.97;;
3081;SDS011;1551;51.046;7.010;2023-03-01T02:49:45;7.80;;;6.82;;
3081;SDS011;1551;51.046;7.010;2023-03-01T02:52:39;9.00;;;6.80;;
3081;SDS011;1551;51.046;7.010;2023-03-01T02:55:37;9.98;;;7.40;;
3081;SDS011;1551;51.046;7.010;2023-03-01T02:58:27;7.97;;;7.18;;
3081;SDS011;1551;51.046;7.010;2023-03-01T03:01:16;9.38;;;7.70;;
3081;SDS011;1551;51.046;7.010;2023-03-01T03:04:07;12.00;;;8.57;;
3081;SDS011;1551;51.046;7.010;2023-03-01T03:07:05;10.70;;;8.32;;
3081;SDS011;1551;51.046;7.010;2023-03-01T03:09:55;9.57;;;8.05;;
3081;SDS011;1551;51.046;7.010;2023-03-01T03:12:43;10.60;;;9.23;;
3081;SDS011;1551;51.046;7.010;2023-03-01T03:15:32;12.27;;;9.35;;
3081;SDS011;1551;51.046;7.010;2023-03-01T03:18:27;10.90;;;8.90;;
3081;SDS011;1551;51.046;7.010;2023-03-01T03:21:16;13.32;;;9.10;;
3081;SDS011;1551;51.046;7.010;2023-03-01T03:24:05;11.40;;;9.00;;
3081;SDS011;1551;51.046;7.010;2023-03-01T03:26:54;10.20;;;8.10;;
3081;SDS011;1551;51.046;7.010;2023-03-01T03:29:43;12.15;;;8.95;;
3081;SDS011;1551;51.046;7.010;2023-03-01T03:32:32;10.77;;;8.87;;
3081;SDS011;1551;51.046;7.010;2023-03-01T03:35:23;10.18;;;8.68;;
3081;SDS011;1551;51.046;7.010;2023-03-01T03:38:22;10.23;;;9.00;;
3081;SDS011;1551;51.046;7.010;2023-03-01T03:41:11;11.25;;;8.98;;
3081;SDS011;1551;51.046;7.010;2023-03-01T03:44:01;11.68;;;8.68;;
3081;SDS011;1551;51.046;7.010;2023-03-01T03:46:50;8.90;;;8.00;;
3081;SDS011;1551;51.046;7.010;2023-03-01T03:49:39;10.98;;;8.65;;
3081;SDS011;1551;51.046;7.010;2023-03-01T03:52:28;11.68;;;8.82;;
3081;SDS011;1551;51.046;7.010;2023-03-01T03:55:17;10.18;;;9.00;;
3081;SDS011;1551;51.046;7.010;2023-03-01T03:58:08;13.63;;;8.77;;
3081;SDS011;1551;51.046;7.010;2023-03-01T04:00:58;10.98;;;9.35;;
3081;SDS011;1551;51.046;7.010;2023-03-01T04:03:49;12.10;;;8.95;;
3081;SDS011;1551;51.046;7.010;2023-03-01T04:06:43;12.18;;;8.88;;
3081;SDS011;1551;51.046;7.010;2023-03-01T04:09:32;11.33;;;9.00;;
3081;SDS011;1551;51.046;7.010;2023-03-01T04:12:21;10.30;;;7.93;;
3081;SDS011;1551;51.046;7.010;2023-03-01T04:15:11;10.27;;;8.68;;
3081;SDS011;1551;51.046;7.010;2023-03-01T04:18:04;12.70;;;8.87;;
3081;SDS011;1551;51.046;7.010;2023-03-01T04:20:53;9.40;;;7.63;;
3081;SDS011;1551;51.046;7.010;2023-03-01T04:23:44;11.35;;;8.60;;
3081;SDS011;1551;51.046;7.010;2023-03-01T04:26:33;11.68;;;8.98;;
3081;SDS011;1551;51.046;7.010;2023-03-01T04:29:22;10.40;;;8.70;;
3081;SDS011;1551;51.046;7.010;2023-03-01T04:32:11;12.40;;;8.90;;
3081;SDS011;1551;51.046;7.010;2023-03-01T04:35:02;12.07;;;8.88;;
3081;SDS011;1551;51.046;7.010;2023-03-01T04:37:51;10.50;;;8.00;;
3081;SDS011;1551;51.046;7.010;2023-03-01T04:40:40;11.52;;;8.45;;
3081;SDS011;1551;51.046;7.010;2023-03-01T04:43:31;10.15;;;8.13;;
3081;SDS011;1551;51.046;7.010;2023-03-01T04:46:20;10.32;;;8.05;;
3081;SDS011;1551;51.046;7.010;2023-03-01T04:49:10;11.88;;;9.48;;
3081;SDS011;1551;51.046;7.010;2023-03-01T04:51:59;10.90;;;9.50;;
3081;SDS011;1551;51.046;7.010;2023-03-01T04:54:50;12.85;;;9.60;;
3081;SDS011;1551;51.046;7.010;2023-03-01T04:57:39;10.95;;;8.98;;
3081;SDS011;1551;51.046;7.010;2023-03-01T05:00:28;10.32;;;8.80;;
3081;SDS011;1551;51.046;7.010;2023-03-01T05:03:17;9.63;;;8.25;;
3081;SDS011;1551;51.046;7.010;2023-03-01T05:06:07;11.77;;;8.60;;
3081;SDS011;1551;51.046;7.010;2023-03-01T05:08:55;11.05;;;9.00;;
3081;SDS011;1551;51.046;7.010;2023-03-01T05:11:44;12.18;;;8.63;;
3081;SDS011;1551;51.046;7.010;2023-03-01T05:14:34;11.68;;;8.90;;
3081;SDS011;1551;51.046;7.010;2023-03-01T05:17:23;10.25;;;8.23;;
3081;SDS011;1551;51.046;7.010;2023-03-01T05:20:12;11.77;;;9.30;;
3081;SDS011;1551;51.046;7.010;2023-03-01T05:23:02;13.50;;;10.07;;
3081;SDS011;1551;51.046;7.010;2023-03-01T05:25:53;11.43;;;9.50;;
3081;SDS011;1551;51.046;7.010;2023-03-01T05:28:44;12.05;;;8.95;;
3081;SDS011;1551;51.046;7.010;2023-03-01T05:31:33;10.63;;;8.30;;
3081;SDS011;1551;51.046;7.010;2023-03-01T05:34:23;10.93;;;8.63;;
3081;SDS011;1551;51.046;7.010;2023-03-01T05:37:14;12.05;;;9.25;;
3081;SDS011;1551;51.046;7.010;2023-03-01T05:40:03;13.70;;;9.88;;
3081;SDS011;1551;51.046;7.010;2023-03-01T05:42:54;11.30;;;8.98;;
3081;SDS011;1551;51.046;7.010;2023-03-01T05:45:44;13.00;;;10.00;;
3081;SDS011;1551;51.046;7.010;2023-03-01T05:48:34;13.57;;;10.00;;
3081;SDS011;1551;51.046;7.010;2023-03-01T05:51:23;11.40;;;9.52;;
3081;SDS011;1551;51.046;7.010;2023-03-01T05:54:12;12.00;;;9.13;;
3081;SDS011;1551;51.046;7.010;2023-03-01T05:57:01;10.98;;;9.32;;
3081;SDS011;1551;51.046;7.010;2023-03-01T05:59:50;12.80;;;10.10;;
3081;SDS011;1551;51.046;7.010;2023-03-01T06:02:39;14.30;;;10.88;;
3081;SDS011;1551;51.046;7.010;2023-03-01T06:05:28;15.90;;;11.32;;
3081;SDS011;1551;51.046;7.010;2023-03-01T06:08:18;12.10;;;10.00;;
3081;SDS011;1551;51.046;7.010;2023-03-01T06:11:08;11.07;;;9.30;;
3081;SDS011;1551;51.046;7.010;2023-03-01T06:13:57;14.30;;;10.70;;
3081;SDS011;1551;51.046;7.010;2023-03-01T06:16:46;12.70;;;9.97;;
3081;SDS011;1551;51.046;7.010;2023-03-01T06:19:35;11.90;;;9.73;;
3081;SDS011;1551;51.046;7.010;2023-03-01T06:22:24;13.38;;;10.60;;
3081;SDS011;1551;51.046;7.010;2023-03-01T06:25:14;11.18;;;9.98;;
3081;SDS011;1551;51.046;7.010;2023-03-01T06:28:05;12.65;;;10.10;;
3081;SDS011;1551;51.046;7.010;2023-03-01T06:30:54;15.05;;;10.48;;
3081;SDS011;1551;51.046;7.010;2023-03-01T06:33:43;13.02;;;10.57;;
3081;SDS011;1551;51.046;7.010;2023-03-01T06:36:33;12.57;;;10.30;;
3081;SDS011;1551;51.046;7.010;2023-03-01T06:39:22;13.40;;;9.65;;
3081;SDS011;1551;51.046;7.010;2023-03-01T06:42:11;11.80;;;10.27;;
3081;SDS011;1551;51.046;7.010;2023-03-01T06:45:00;14.77;;;11.02;;
3081;SDS011;1551;51.046;7.010;2023-03-01T06:47:50;11.93;;;10.63;;
3081;SDS011;1551;51.046;7.010;2023-03-01T06:50:39;14.65;;;10.52;;
3081;SDS011;1551;51.046;7.010;2023-03-01T06:53:28;13.75;;;10.70;;
3081;SDS011;1551;51.046;7.010;2023-03-01T06:56:18;12.80;;;10.30;;
3081;SDS011;1551;51.046;7.010;2023-03-01T06:59:07;14.00;;;10.20;;
3081;SDS011;1551;51.046;7.010;2023-03-01T07:01:56;13.02;;;10.57;;
3081;SDS011;1551;51.046;7.010;2023-03-01T07:04:45;14.43;;;9.97;;
3081;SDS011;1551;51.046;7.010;2023-03-01T07:07:34;14.40;;;11.15;;
3081;SDS011;1551;51.046;7.010;2023-03-01T07:10:23;14.95;;;11.43;;
3081;SDS011;1551;51.046;7.010;2023-03-01T07:13:12;16.85;;;11.00;;
3081;SDS011;1551;51.046;7.010;2023-03-01T07:16:03;15.10;;;10.65;;
3081;SDS011;1551;51.046;7.010;2023-03-01T07:18:52;15.55;;;11.77;;
3081;SDS011;1551;51.046;7.010;2023-03-01T07:21:41;14.03;;;11.33;;
3081;SDS011;1551;51.046;7.010;2023-03-01T07:24:30;13.63;;;11.30;;
3081;SDS011;1551;51.046;7.010;2023-03-01T07:27:19;14.65;;;10.70;;
3081;SDS011;1551;51.046;7.010;2023-03-01T07:30:08;14.85;;;11.85;;
3081;SDS011;1551;51.046;7.010;2023-03-01T07:32:58;15.18;;;11.30;;
3081;SDS011;1551;51.046;7.010;2023-03-01T07:35:47;12.50;;;11.20;;
3081;SDS011;1551;51.046;7.010;2023-03-01T07:38:36;14.13;;;10.38;;
3081;SDS011;1551;51.046;7.010;2023-03-01T07:41:24;13.83;;;11.03;;
3081;SDS011;1551;51.046;7.010;2023-03-01T07:44:14;12.85;;;10.52;;
3081;SDS011;1551;51.046;7.010;2023-03-01T07:47:04;12.52;;;10.55;;
3081;SDS011;1551;51.046;7.010;2023-03-01T07:49:53;13.67;;;10.90;;
3081;SDS011;1551;51.046;7.010;2023-03-01T07:52:44;13.07;;;10.80;;
3081;SDS011;1551;51.046;7.010;2023-03-01T07:55:34;14.77;;;11.40;;
3081;SDS011;1551;51.046;7.010;2023-03-01T07:58:23;12.50;;;10.67;;
3081;SDS011;1551;51.046;7.010;2023-03-01T08:01:13;16.88;;;11.27;;
3081;SDS011;1551;51.046;7.010;2023-03-01T08:04:05;13.02;;;11.13;;
3081;SDS011;1551;51.046;7.010;2023-03-01T08:06:56;12.60;;;10.98;;
3081;SDS011;1551;51.046;7.010;2023-03-01T08:09:45;14.00;;;10.63;;
3081;SDS011;1551;51.046;7.010;2023-03-01T08:12:34;14.40;;;10.80;;
3081;SDS011;1551;51.046;7.010;2023-03-01T08:15:23;12.25;;;10.68;;
3081;SDS011;1551;51.046;7.010;2023-03-01T08:18:12;11.50;;;10.02;;
3081;SDS011;1551;51.046;7.010;2023-03-01T08:21:05;11.45;;;10.13;;
3081;SDS011;1551;51.046;7.010;2023-03-01T08:24:12;11.60;;;9.98;;
3081;SDS011;1551;51.046;7.010;2023-03-01T08:27:01;12.75;;;9.80;;
3081;SDS011;1551;51.046;7.010;2023-03-01T08:29:51;12.80;;;11.23;;
3081;SDS011;1551;51.046;7.010;2023-03-01T08:32:40;10.75;;;9.60;;
3081;SDS011;1551;51.046;7.010;2023-03-01T08:35:29;10.38;;;9.10;;
3081;SDS011;1551;51.046;7.010;2023-03-01T08:38:18;11.70;;;9.32;;
3081;SDS011;1551;51.046;7.010;2023-03-01T08:41:07;11.85;;;9.88;;
3081;SDS011;1551;51.046;7.010;2023-03-01T08:43:56;11.48;;;9.20;;
3081;SDS011;1551;51.046;7.010;2023-03-01T08:46:48;14.07;;;10.18;;
3081;SDS011;1551;51.046;7.010;2023-03-01T08:49:38;11.55;;;9.50;;
3081;SDS011;1551;51.046;7.010;2023-03-01T08:52:27;10.25;;;9.13;;
3081;SDS011;1551;51.046;7.010;2023-03-01T08:55:18;15.45;;;10.57;;
3081;SDS011;1551;51.046;7.010;2023-03-01T08:58:07;10.43;;;8.60;;
3081;SDS011;1551;51.046;7.010;2023-03-01T09:00:56;16.02;;;10.25;;
3081;SDS011;1551;51.046;7.010;2023-03-01T09:03:45;12.10;;;9.35;;
3081;SDS011;1551;51.046;7.010;2023-03-01T09:06:35;12.47;;;9.17;;
3081;SDS011;1551;51.046;7.010;2023-03-01T09:09:25;10.73;;;7.70;;
3081;SDS011;1551;51.046;7.010;2023-03-01T09:12:14;11.48;;;8.07;;
3081;SDS011;1551;51.046;7.010;2023-03-01T09:15:03;11.23;;;8.75;;
3081;SDS011;1551;51.046;7.010;2023-03-01T09:17:53;9.47;;;8.47;;
3081;SDS011;1551;51.046;7.010;2023-03-01T09:20:42;11.30;;;8.77;;
3081;SDS011;1551;51.046;7.010;2023-03-01T09:23:30;10.60;;;8.50;;
3081;SDS011;1551;51.046;7.010;2023-03-01T09:26:20;11.10;;;9.40;;
3081;SDS011;1551;51.046;7.010;2023-03-01T09:29:11;11.15;;;8.20;;
3081;SDS011;1551;51.046;7.010;2023-03-01T09:32:00;11.70;;;8.90;;
3081;SDS011;1551;51.046;7.010;2023-03-01T09:34:49;11.30;;;8.50;;
3081;SDS011;1551;51.046;7.010;2023-03-01T09:37:53;9.93;;;8.52;;
3081;SDS011;1551;51.046;7.010;2023-03-01T09:40:42;10.00;;;8.45;;
3081;SDS011;1551;51.046;7.010;2023-03-01T09:46:23;11.18;;;7.97;;
3081;SDS011;1551;51.046;7.010;2023-03-01T09:49:18;11.63;;;9.52;;
3081;SDS011;1551;51.046;7.010;2023-03-01T09:52:21;10.57;;;9.45;;
3081;SDS011;1551;51.046;7.010;2023-03-01T09:55:26;10.37;;;8.50;;
3081;SDS011;1551;51.046;7.010;2023-03-01T10:01:19;12.27;;;8.70;;
3081;SDS011;1551;51.046;7.010;2023-03-01T10:10:37;12.80;;;9.10;;
3081;SDS011;1551;51.046;7.010;2023-03-01T10:16:40;10.40;;;9.30;;
3081;SDS011;1551;51.046;7.010;2023-03-01T10:19:44;9.15;;;7.85;;
3081;SDS011;1551;51.046;7.010;2023-03-01T10:22:34;9.68;;;8.68;;
3081;SDS011;1551;51.046;7.010;2023-03-01T10:31:22;9.95;;;8.80;;
3081;SDS011;1551;51.046;7.010;2023-03-01T10:34:19;9.98;;;8.98;;
3081;SDS011;1551;51.046;7.010;2023-03-01T10:37:20;10.95;;;8.95;;
3081;SDS011;1551;51.046;7.010;2023-03-01T10:40:11;9.93;;;8.50;;
3081;SDS011;1551;51.046;7.010;2023-03-01T10:43:01;9.45;;;8.32;;
3081;SDS011;1551;51.046;7.010;2023-03-01T10:45:53;9.98;;;8.98;;
3081;SDS011;1551;51.046;7.010;2023-03-01T10:48:41;10.02;;;8.52;;
3081;SDS011;1551;51.046;7.010;2023-03-01T10:51:30;10.30;;;8.40;;
3081;SDS011;1551;51.046;7.010;2023-03-01T10:57:22;12.65;;;8.85;;
3081;SDS011;1551;51.046;7.010;2023-03-01T11:00:21;10.38;;;8.90;;
3081;SDS011;1551;51.046;7.010;2023-03-01T11:03:23;9.80;;;8.80;;
3081;SDS011;1551;51.046;7.010;2023-03-01T11:06:23;10.07;;;8.68;;
3081;SDS011;1551;51.046;7.010;2023-03-01T11:09:23;10.03;;;8.30;;
3081;SDS011;1551;51.046;7.010;2023-03-01T11:12:16;9.38;;;8.45;;
3081;SDS011;1551;51.046;7.010;2023-03-01T11:15:08;9.20;;;8.20;;
3081;SDS011;1551;51.046;7.010;2023-03-01T11:18:18;9.32;;;8.10;;
3081;SDS011;1551;51.046;7.010;2023-03-01T11:21:09;10.00;;;8.77;;
3081;SDS011;1551;51.046;7.010;2023-03-01T11:23:59;9.50;;;8.60;;
3081;SDS011;1551;51.046;7.010;2023-03-01T11:26:51;9.52;;;8.52;;
3081;SDS011;1551;51.046;7.010;2023-03-01T11:29:44;8.68;;;7.88;;
3081;SDS011;1551;51.046;7.010;2023-03-01T11:32:40;9.75;;;8.75;;
3081;SDS011;1551;51.046;7.010;2023-03-01T11:35:45;9.70;;;8.70;;
3081;SDS011;1551;51.046;7.010;2023-03-01T11:38:42;10.50;;;8.70;;
3081;SDS011;1551;51.046;7.010;2023-03-01T11:41:33;10.23;;;8.65;;
3081;SDS011;1551;51.046;7.010;2023-03-01T11:44:25;9.40;;;8.40;;
3081;SDS011;1551;51.046;7.010;2023-03-01T11:50:38;9.15;;;8.25;;
3081;SDS011;1551;51.046;7.010;2023-03-01T11:53:38;10.13;;;8.98;;
3081;SDS011;1551;51.046;7.010;2023-03-01T11:57:02;9.00;;;8.10;;
3081;SDS011;1551;51.046;7.010;2023-03-01T12:03:30;9.63;;;8.60;;
3081;SDS011;1551;51.046;7.010;2023-03-01T12:06:36;9.03;;;8.13;;
3081;SDS011;1551;51.046;7.010;2023-03-01T12:16:24;9.82;;;8.82;;
3081;SDS011;1551;51.046;7.010;2023-03-01T12:19:32;9.10;;;8.20;;
3081;SDS011;1551;51.046;7.010;2023-03-01T12:35:04;8.75;;;7.95;;
3081;SDS011;1551;51.046;7.010;2023-03-01T12:44:10;9.55;;;8.65;;
3081;SDS011;1551;51.046;7.010;2023-03-01T12:47:11;8.90;;;8.00;;
3081;SDS011;1551;51.046;7.010;2023-03-01T12:50:23;8.68;;;7.70;;
3081;SDS011;1551;51.046;7.010;2023-03-01T12:53:22;9.52;;;7.78;;
3081;SDS011;1551;51.046;7.010;2023-03-01T12:56:15;8.93;;;8.07;;
3081;SDS011;1551;51.046;7.010;2023-03-01T13:08:34;9.90;;;7.70;;
3081;SDS011;1551;51.046;7.010;2023-03-01T13:11:30;7.80;;;7.00;;
3081;SDS011;1551;51.046;7.010;2023-03-01T13:17:31;8.10;;;6.93;;
3081;SDS011;1551;51.046;7.010;2023-03-01T13:20:44;7.90;;;7.10;;
3081;SDS011;1551;51.046;7.010;2023-03-01T13:23:37;10.13;;;7.70;;
3081;SDS011;1551;51.046;7.010;2023-03-01T13:26:27;7.85;;;7.07;;
3081;SDS011;1551;51.046;7.010;2023-03-01T13:29:26;8.32;;;7.20;;
3081;SDS011;1551;51.046;7.010;2023-03-01T13:32:19;7.90;;;7.07;;
3081;SDS011;1551;51.046;7.010;2023-03-01T13:38:36;8.13;;;6.97;;
3081;SDS011;1551;51.046;7.010;2023-03-01T13:44:37;8.05;;;6.50;;
3081;SDS011;1551;51.046;7.010;2023-03-01T13:47:30;7.45;;;6.43;;
3081;SDS011;1551;51.046;7.010;2023-03-01T13:50:23;7.37;;;6.67;;
3081;SDS011;1551;51.046;7.010;2023-03-01T13:53:17;8.43;;;7.60;;
3081;SDS011;1551;51.046;7.010;2023-03-01T13:56:12;8.60;;;7.43;;
3081;SDS011;1551;51.046;7.010;2023-03-01T13:59:12;8.90;;;7.55;;
3081;SDS011;1551;51.046;7.010;2023-03-01T14:02:11;8.68;;;7.78;;
3081;SDS011;1551;51.046;7.010;2023-03-01T14:05:01;8.82;;;7.35;;
3081;SDS011;1551;51.046;7.010;2023-03-01T14:07:51;7.75;;;6.90;;
3081;SDS011;1551;51.046;7.010;2023-03-01T14:10:46;9.20;;;8.30;;
3081;SDS011;1551;51.046;7.010;2023-03-01T14:20:25;10.50;;;8.10;;
3081;SDS011;1551;51.046;7.010;2023-03-01T14:23:18;8.13;;;7.43;;
3081;SDS011;1551;51.046;7.010;2023-03-01T14:26:09;9.20;;;8.30;;
3081;SDS011;1551;51.046;7.010;2023-03-01T14:29:00;9.30;;;7.63;;
3081;SDS011;1551;51.046;7.010;2023-03-01T14:31:49;8.13;;;7.10;;
3081;SDS011;1551;51.046;7.010;2023-03-01T14:34:42;8.90;;;7.90;;
3081;SDS011;1551;51.046;7.010;2023-03-01T14:37:34;9.02;;;8.10;;
3081;SDS011;1551;51.046;7.010;2023-03-01T14:40:25;9.00;;;7.70;;
3081;SDS011;1551;51.046;7.010;2023-03-01T14:43:20;8.80;;;7.90;;
3081;SDS011;1551;51.046;7.010;2023-03-01T14:46:23;8.70;;;7.45;;
3081;SDS011;1551;51.046;7.010;2023-03-01T14:52:20;8.25;;;7.45;;
3081;SDS011;1551;51.046;7.010;2023-03-01T14:58:31;7.88;;;7.07;;
3081;SDS011;1551;51.046;7.010;2023-03-01T15:01:22;9.63;;;7.47;;
3081;SDS011;1551;51.046;7.010;2023-03-01T15:04:12;7.97;;;6.90;;
3081;SDS011;1551;51.046;7.010;2023-03-01T15:07:02;9.33;;;7.00;;
3081;SDS011;1551;51.046;7.010;2023-03-01T15:09:53;8.40;;;7.50;;
3081;SDS011;1551;51.046;7.010;2023-03-01T15:12:42;8.85;;;7.13;;
3081;SDS011;1551;51.046;7.010;2023-03-01T15:15:32;9.07;;;7.15;;
3081;SDS011;1551;51.046;7.010;2023-03-01T15:18:27;9.05;;;7.70;;
3081;SDS011;1551;51.046;7.010;2023-03-01T15:21:25;9.38;;;8.48;;
3081;SDS011;1551;51.046;7.010;2023-03-01T15:24:25;8.98;;;7.60;;
3081;SDS011;1551;51.046;7.010;2023-03-01T15:27:17;9.98;;;7.20;;
3081;SDS011;1551;51.046;7.010;2023-03-01T15:30:21;7.32;;;6.53;;
3081;SDS011;1551;51.046;7.010;2023-03-01T15:33:31;9.13;;;7.28;;
3081;SDS011;1551;51.046;7.010;2023-03-01T15:36:30;8.40;;;7.32;;
3081;SDS011;1551;51.046;7.010;2023-03-01T15:48:17;8.13;;;6.97;;
3081;SDS011;1551;51.046;7.010;2023-03-01T15:51:09;8.05;;;6.90;;
3081;SDS011;1551;51.046;7.010;2023-03-01T15:54:15;9.38;;;7.10;;
3081;SDS011;1551;51.046;7.010;2023-03-01T15:57:12;7.45;;;6.30;;
3081;SDS011;1551;51.046;7.010;2023-03-01T16:00:02;7.65;;;6.85;;
3081;SDS011;1551;51.046;7.010;2023-03-01T16:03:00;8.90;;;7.20;;
3081;SDS011;1551;51.046;7.010;2023-03-01T16:05:49;8.25;;;6.80;;
3081;SDS011;1551;51.046;7.010;2023-03-01T16:08:38;8.80;;;6.70;;
3081;SDS011;1551;51.046;7.010;2023-03-01T16:11:28;8.87;;;7.40;;
3081;SDS011;1551;51.046;7.010;2023-03-01T16:14:18;7.32;;;6.40;;
3081;SDS011;1551;51.046;7.010;2023-03-01T16:17:07;9.40;;;6.67;;
3081;SDS011;1551;51.046;7.010;2023-03-01T16:19:58;8.60;;;6.40;;
3081;SDS011;1551;51.046;7.010;2023-03-01T16:22:47;10.27;;;6.28;;
3081;SDS011;1551;51.046;7.010;2023-03-01T16:25:37;9.50;;;6.67;;
3081;SDS011;1551;51.046;7.010;2023-03-01T16:28:26;11.23;;;7.30;;
3081;SDS011;1551;51.046;7.010;2023-03-01T16:31:19;8.70;;;5.90;;
3081;SDS011;1551;51.046;7.010;2023-03-01T16:34:08;8.97;;;6.80;;
3081;SDS011;1551;51.046;7.010;2023-03-01T16:36:57;8.93;;;6.53;;
3081;SDS011;1551;51.046;7.010;2023-03-01T16:39:46;7.00;;;6.15;;
3081;SDS011;1551;51.046;7.010;2023-03-01T16:42:35;8.95;;;6.80;;
3081;SDS011;1551;51.046;7.010;2023-03-01T16:45:33;8.85;;;6.47;;
3081;SDS011;1551;51.046;7.010;2023-03-01T16:48:28;7.95;;;6.40;;
3081;SDS011;1551;51.046;7.010;2023-03-01T16:51:18;9.45;;;6.45;;
3081;SDS011;1551;51.046;7.010;2023-03-01T16:54:08;9.55;;;6.70;;
3081;SDS011;1551;51.046;7.010;2023-03-01T16:56:58;8.82;;;6.60;;
3081;SDS011;1551;51.046;7.010;2023-03-01T16:59:47;8.02;;;6.45;;
3081;SDS011;1551;51.046;7.010;2023-03-01T17:02:36;8.88;;;6.93;;
3081;SDS011;1551;51.046;7.010;2023-03-01T17:05:25;7.68;;;6.88;;
3081;SDS011;1551;51.046;7.010;2023-03-01T17:08:14;9.15;;;6.70;;
3081;SDS011;1551;51.046;7.010;2023-03-01T17:11:04;8.05;;;6.60;;
3081;SDS011;1551;51.046;7.010;2023-03-01T17:13:55;10.02;;;6.60;;
3081;SDS011;1551;51.046;7.010;2023-03-01T17:16:44;7.30;;;6.15;;
3081;SDS011;1551;51.046;7.010;2023-03-01T17:19:33;7.50;;;5.90;;
3081;SDS011;1551;51.046;7.010;2023-03-01T17:22:24;8.98;;;7.00;;
3081;SDS011;1551;51.046;7.010;2023-03-01T17:25:13;9.20;;;6.80;;
3081;SDS011;1551;51.046;7.010;2023-03-01T17:28:03;8.93;;;6.50;;
3081;SDS011;1551;51.046;7.010;2023-03-01T17:30:52;9.98;;;6.25;;
3081;SDS011;1551;51.046;7.010;2023-03-01T17:33:41;8.40;;;6.75;;
3081;SDS011;1551;51.046;7.010;2023-03-01T17:36:30;9.20;;;6.28;;
3081;SDS011;1551;51.046;7.010;2023-03-01T17:39:21;7.75;;;6.95;;
3081;SDS011;1551;51.046;7.010;2023-03-01T17:42:15;9.50;;;7.30;;
3081;SDS011;1551;51.046;7.010;2023-03-01T17:45:04;8.10;;;6.57;;
3081;SDS011;1551;51.046;7.010;2023-03-01T17:47:54;8.87;;;6.23;;
3081;SDS011;1551;51.046;7.010;2023-03-01T17:50:43;9.98;;;6.47;;
3081;SDS011;1551;51.046;7.010;2023-03-01T17:53:33;9.52;;;7.40;;
3081;SDS011;1551;51.046;7.010;2023-03-01T17:56:22;9.13;;;7.03;;
3081;SDS011;1551;51.046;7.010;2023-03-01T17:59:10;8.23;;;7.30;;
3081;SDS011;1551;51.046;7.010;2023-03-01T18:01:59;9.88;;;8.30;;
3081;SDS011;1551;51.046;7.010;2023-03-01T18:04:49;11.65;;;7.55;;
3081;SDS011;1551;51.046;7.010;2023-03-01T18:07:38;7.93;;;6.35;;
3081;SDS011;1551;51.046;7.010;2023-03-01T18:10:27;9.88;;;7.13;;
3081;SDS011;1551;51.046;7.010;2023-03-01T18:13:16;10.23;;;7.40;;
3081;SDS011;1551;51.046;7.010;2023-03-01T18:16:12;9.20;;;7.70;;
3081;SDS011;1551;51.046;7.010;2023-03-01T18:19:02;9.27;;;7.20;;
3081;SDS011;1551;51.046;7.010;2023-03-01T18:21:51;9.50;;;7.30;;
3081;SDS011;1551;51.046;7.010;2023-03-01T18:24:40;10.32;;;7.20;;
3081;SDS011;1551;51.046;7.010;2023-03-01T18:27:29;9.73;;;6.78;;
3081;SDS011;1551;51.046;7.010;2023-03-01T18:30:18;10.18;;;7.03;;
3081;SDS011;1551;51.046;7.010;2023-03-01T18:33:08;8.38;;;7.18;;
3081;SDS011;1551;51.046;7.010;2023-03-01T18:35:57;8.90;;;6.70;;
3081;SDS011;1551;51.046;7.010;2023-03-01T18:38:46;10.25;;;7.07;;
3081;SDS011;1551;51.046;7.010;2023-03-01T18:41:36;10.30;;;7.60;;
3081;SDS011;1551;51.046;7.010;2023-03-01T18:44:25;10.43;;;7.35;;
3081;SDS011;1551;51.046;7.010;2023-03-01T18:47:14;9.88;;;7.57;;
3081;SDS011;1551;51.046;7.010;2023-03-01T18:50:04;9.38;;;8.20;;
3081;SDS011;1551;51.046;7.010;2023-03-01T18:52:53;11.00;;;7.78;;
3081;SDS011;1551;51.046;7.010;2023-03-01T18:55:43;9.93;;;7.40;;
3081;SDS011;1551;51.046;7.010;2023-03-01T18:58:32;8.48;;;6.50;;
3081;SDS011;1551;51.046;7.010;2023-03-01T19:01:25;9.52;;;7.25;;
3081;SDS011;1551;51.046;7.010;2023-03-01T19:04:15;10.25;;;7.40;;
3081;SDS011;1551;51.046;7.010;2023-03-01T19:07:05;11.97;;;7.37;;
3081;SDS011;1551;51.046;7.010;2023-03-01T19:09:54;15.18;;;8.25;;
3081;SDS011;1551;51.046;7.010;2023-03-01T19:12:43;8.85;;;7.38;;
3081;SDS011;1551;51.046;7.010;2023-03-01T19:15:32;9.60;;;7.15;;